Time;durP1;ratioP1;P1;durP2;ratioP2;P2;SDS_P1;SDS_P2;PMS_P1;PMS_P2;Temp;Humidity;BMP_temperature;BMP_pressure;BME280_temperature;BME280_humidity;BME280_pressure;Samples;Min_cycle;Max_cycle;Signal;HPM_P1;HPM_P2
2022/03/10 00:02:43;;;;;;;;;;;;;;;19.35;28.99;101504.65;104265;1306;72814;-83
2022/03/10 00:05:23;;;;;;;;;;;;;;;19.35;28.99;101502.38;104361;1306;76349;-80
2022/03/10 00:07:57;;;;;;;;;;;;;;;19.34;29.07;101499.52;104286;1307;61150;-81
2022/03/10 00:10:45;;;;;;;;;;;;;;;;;;;;;
2022/03/10 00:13:30;;;;;;;;;;;;;;;19.34;28.97;101498.45;104476;1307;74304;-78
2022/03/10 00:16:18;;;;;;;;;;;;;;;19.34;28.98;101499.71;104302;1309;72622;-79
2022/03/10 00:19:09;;;;;;;;;;;;;;;19.34;29.00;101498.82;104205;1308;61226;-80
2022/03/10 00:22:02;;;;;;;;;;;;;;;19.34;29.00;101497.22;104382;1306;61885;-82
2022/03/10 00:24:52;;;;;;;;;;;;;;;19.35;29.08;101494.52;104390;1309;72872;-80
2022/03/10 00:27:36;;;;;;;;;;;;;;;19.35;29.12;101494.52;104397;1306;75673;-80
2022/03/10 00:30:23;;;;;;;;;;;;;;;19.35;29.07;101492.73;104311;1308;61318;-81
2022/03/10 00:33:11;;;;;;;;;;;;;;;19.35;29.15;101493.45;104335;1307;61111;-81
2022/03/10 00:35:48;;;;;;;;;;;;;;;19.35;29.17;101493.63;104218;1307;71673;-82
2022/03/10 00:38:16;;;;;;;;;;;;;;;19.34;29.13;101492.93;104391;1308;75978;-82
2022/03/10 00:41:27;;;;;;;;;;;;;;;;;;;;;
2022/03/10 00:43:53;;;;;;;;;;;;;;;19.34;29.16;101491.51;104293;1308;61338;-80
2022/03/10 00:46:51;;;;;;;;;;;;;;;19.34;29.10;101488.29;104402;1309;72972;-79
2022/03/10 00:49:40;;;;;;;;;;;;;;;19.34;29.11;101488.11;103714;1317;75831;-80
2022/03/10 00:52:10;;;;;;;;;;;;;;;19.34;29.06;101488.63;103880;1316;61305;-82
2022/03/10 00:55:05;;;;;;;;;;;;;;;19.35;29.21;101487.20;103746;1316;61834;-80
2022/03/10 00:57:42;;;;;;;;;;;;;;;;;;;;;
2022/03/10 01:00:09;;;;;;;;;;;;;;;19.35;29.14;101484.68;103667;1317;75849;-83
2022/03/10 01:02:57;;;;;;;;;;;;;;;19.35;29.36;101477.90;103966;1314;60495;-83
2022/03/10 01:05:43;;;;;;;;;;;;;;;19.35;29.16;101476.31;103926;1316;61314;-81
2022/03/10 01:08:19;;;;;;;;;;;;;;;19.35;29.24;101475.58;103967;1314;72805;-80
2022/03/10 01:11:05;;;;;;;;;;;;;;;19.35;29.16;101476.98;103987;1314;75764;-80
2022/03/10 01:14:01;;;;;;;;;;;;;;;;;;;;;
2022/03/10 01:16:26;;;;;;;;;;;;;;;19.36;29.24;101475.19;103848;1314;61472;-82
2022/03/10 01:19:23;;;;;;;;;;;;;;;19.35;29.22;101475.19;103608;1316;72678;-82
2022/03/10 01:22:09;;;;;;;;;;;;;;;19.35;29.19;101469.83;103253;1314;74858;-84
2022/03/10 01:24:49;;;;;;;;;;;;;;;19.35;29.25;101471.80;103963;1314;61131;-81
2022/03/10 01:27:18;;;;;;;;;;;;;;;19.35;29.22;101472.52;104071;1310;61263;-81
2022/03/10 01:30:05;;;;;;;;;;;;;;;19.35;29.20;101472.52;104309;1309;72792;-80
2022/03/10 01:32:59;;;;;;;;;;;;;;;19.36;29.20;101472.69;104437;1309;74632;-80
2022/03/10 01:35:45;;;;;;;;;;;;;;;19.36;29.31;101469.47;104445;1308;61259;-80
2022/03/10 01:38:22;;;;;;;;;;;;;;;;;;;;;
2022/03/10 01:40:52;;;;;;;;;;;;;;;19.35;29.21;101467.89;104343;1309;73943;-81
2022/03/10 01:43:18;;;;;;;;;;;;;;;19.36;29.19;101468.40;104396;1308;61287;-82
2022/03/10 01:46:08;;;;;;;;;;;;;;;;;;;;;
2022/03/10 01:48:33;;;;;;;;;;;;;;;19.35;29.29;101471.80;104467;1306;61092;-80
2022/03/10 01:51:18;;;;;;;;;;;;;;;;;;;;;
2022/03/10 01:53:54;;;;;;;;;;;;;;;;;;;;;
2022/03/10 01:56:40;;;;;;;;;;;;;;;19.35;29.17;101475.94;104312;1309;61410;-81
2022/03/10 01:59:13;;;;;;;;;;;;;;;19.35;29.21;101479.67;104261;1308;61592;-82
2022/03/10 02:02:09;;;;;;;;;;;;;;;19.35;29.19;101485.55;104402;1306;71502;-83
2022/03/10 02:04:58;;;;;;;;;;;;;;;19.35;29.28;101490.23;104291;1309;74966;-80
2022/03/10 02:10:48;;;;;;;;;;;;;;;;;;;;;
2022/03/10 02:13:35;;;;;;;;;;;;;;;19.34;29.21;101492.20;104257;1308;73424;-82
2022/03/10 02:19:44;;;;;;;;;;;;;;;19.34;29.15;101490.05;104399;1306;61292;-80
2022/03/10 02:22:14;;;;;;;;;;;;;;;19.35;29.13;101489.16;104281;1309;62489;-82
2022/03/10 02:25:06;;;;;;;;;;;;;;;19.34;29.00;101493.10;104286;1309;74379;-80
2022/03/10 02:28:07;;;;;;;;;;;;;;;19.34;29.05;101490.98;103847;1316;76206;-81
2022/03/10 02:30:55;;;;;;;;;;;;;;;;;;;;;
2022/03/10 02:33:47;;;;;;;;;;;;;;;19.35;29.09;101497.37;103807;1316;61190;-81
2022/03/10 02:36:32;;;;;;;;;;;;;;;19.35;29.08;101497.90;103912;1314;73488;-78
2022/03/10 02:39:24;;;;;;;;;;;;;;;19.35;29.09;101495.58;103838;1314;74688;-80
2022/03/10 02:42:00;;;;;;;;;;;;;;;19.35;29.18;101500.20;103982;1314;61270;-80
2022/03/10 02:44:39;;;;;;;;;;;;;;;19.35;29.18;101503.79;103828;1315;61410;-78
2022/03/10 02:47:13;;;;;;;;;;;;;;;19.35;29.11;101506.30;103777;1315;73771;-80
2022/03/10 02:50:19;;;;;;;;;;;;;;;19.34;29.12;101507.20;103808;1315;76605;-80
2022/03/10 02:52:48;;;;;;;;;;;;;;;19.34;29.18;101511.15;103946;1314;61282;-83
2022/03/10 02:55:37;;;;;;;;;;;;;;;19.35;29.09;101515.77;104050;1314;61177;-83
2022/03/10 02:58:13;;;;;;;;;;;;;;;19.35;29.18;101513.42;103996;1315;72859;-83
2022/03/10 03:00:39;;;;;;;;;;;;;;;19.34;29.15;101514.16;103894;1315;75855;-82
2022/03/10 03:03:22;;;;;;;;;;;;;;;19.35;29.26;101515.02;104015;1315;61311;-82
2022/03/10 03:05:58;;;;;;;;;;;;;;;19.35;29.09;101512.16;104195;1307;61374;-83
2022/03/10 03:08:37;;;;;;;;;;;;;;;19.35;29.17;101509.86;104243;1308;73062;-81
2022/03/10 03:11:16;;;;;;;;;;;;;;;;;;;;;
2022/03/10 03:14:04;;;;;;;;;;;;;;;;;;;;;
2022/03/10 03:16:43;;;;;;;;;;;;;;;19.34;29.14;101508.27;104267;1309;61190;-78
2022/03/10 03:19:19;;;;;;;;;;;;;;;19.34;29.11;101512.55;104221;1310;74027;-79
2022/03/10 03:22:23;;;;;;;;;;;;;;;19.34;29.12;101515.78;104337;1307;74545;-81
2022/03/10 03:25:26;;;;;;;;;;;;;;;;;;;;;
2022/03/10 03:28:00;;;;;;;;;;;;;;;19.34;29.02;101515.08;104271;1309;61304;-81
2022/03/10 03:30:52;;;;;;;;;;;;;;;19.34;29.05;101512.58;104528;1306;72961;-81
2022/03/10 03:33:26;;;;;;;;;;;;;;;19.35;29.19;101515.40;104291;1309;75224;-79
2022/03/10 03:36:03;;;;;;;;;;;;;;;19.35;29.11;101521.66;104290;1309;61540;-84
2022/03/10 03:38:58;;;;;;;;;;;;;;;19.35;29.19;101520.02;104401;1306;61258;-82
2022/03/10 03:41:26;;;;;;;;;;;;;;;19.35;29.05;101522.16;104352;1306;72901;-81
2022/03/10 03:43:51;;;;;;;;;;;;;;;19.35;29.02;101520.91;104377;1309;61487;-84
2022/03/10 03:46:40;;;;;;;;;;;;;;;19.35;29.12;101520.90;104293;1307;61855;-82
2022/03/10 03:49:42;;;;;;;;;;;;;;;19.35;29.07;101522.34;104365;1309;59751;-86
2022/03/10 03:52:19;;;;;;;;;;;;;;;19.35;29.20;101525.01;104375;1308;73050;-80
2022/03/10 03:54:55;;;;;;;;;;;;;;;19.35;29.17;101524.10;104298;1309;75895;-80
2022/03/10 03:57:23;;;;;;;;;;;;;;;19.35;29.07;101528.55;104350;1309;61218;-81
2022/03/10 04:00:03;;;;;;;;;;;;;;;19.35;29.10;101529.49;104321;1309;61189;-85
2022/03/10 04:02:44;;;;;;;;;;;;;;;19.35;29.17;101533.76;104372;1309;73779;-82
2022/03/10 04:05:26;;;;;;;;;;;;;;;19.35;29.17;101532.16;104394;1308;74765;-82
2022/03/10 04:08:11;;;;;;;;;;;;;;;19.35;29.20;101531.81;104470;1306;61381;-80
2022/03/10 04:11:00;;;;;;;;;;;;;;;19.35;29.17;101536.98;104097;1310;61288;-82
2022/03/10 04:13:29;;;;;;;;;;;;;;;19.35;29.14;101535.02;103948;1314;72987;-84
2022/03/10 04:16:21;;;;;;;;;;;;;;;19.35;29.16;101539.65;103853;1315;74628;-80
2022/03/10 04:18:58;;;;;;;;;;;;;;;19.35;28.97;101543.23;103803;1315;61227;-81
2022/03/10 04:21:31;;;;;;;;;;;;;;;19.35;29.19;101543.41;103896;1314;61540;-80
2022/03/10 04:24:11;;;;;;;;;;;;;;;19.35;29.05;101545.02;103804;1315;72871;-84
2022/03/10 04:26:42;;;;;;;;;;;;;;;19.35;29.00;101543.23;103846;1315;75709;-81
2022/03/10 04:29:23;;;;;;;;;;;;;;;;;;;;;
2022/03/10 04:31:58;;;;;;;;;;;;;;;19.34;29.08;101548.27;103833;1316;60606;-80
2022/03/10 04:34:34;;;;;;;;;;;;;;;19.34;29.10;101544.89;104012;1314;73660;-80
2022/03/10 04:37:02;;;;;;;;;;;;;;;19.33;28.96;101550.08;104028;1314;75958;-81
2022/03/10 04:40:08;;;;;;;;;;;;;;;19.34;29.12;101555.06;104013;1314;61200;-80
2022/03/10 04:42:45;;;;;;;;;;;;;;;19.33;29.11;101557.22;104036;1314;61437;-80
2022/03/10 04:45:19;;;;;;;;;;;;;;;19.33;29.07;101561.52;103928;1314;73875;-83
2022/03/10 04:47:58;;;;;;;;;;;;;;;19.34;29.01;101562.73;103738;1317;75913;-82
2022/03/10 04:50:47;;;;;;;;;;;;;;;19.34;29.10;101569.89;103970;1311;61340;-81
2022/03/10 04:53:15;;;;;;;;;;;;;;;19.34;28.93;101574.50;104435;1307;61504;-81
2022/03/10 04:56:09;;;;;;;;;;;;;;;19.34;29.11;101575.42;104479;1306;73790;-81
2022/03/10 04:58:46;;;;;;;;;;;;;;;19.34;29.04;101581.83;104277;1309;74790;-81
2022/03/10 05:01:38;;;;;;;;;;;;;;;19.34;29.06;101590.20;104159;1309;61410;-81
2022/03/10 05:04:12;;;;;;;;;;;;;;;19.32;29.15;101592.81;103598;1317;61490;-83
2022/03/10 05:06:47;;;;;;;;;;;;;;;19.29;29.15;101594.20;103730;1316;72435;-82
2022/03/10 05:09:29;;;;;;;;;;;;;;;19.26;29.13;101594.71;103676;1316;73673;-81
2022/03/10 05:11:55;;;;;;;;;;;;;;;19.23;29.19;101603.23;103392;1317;61462;-79
2022/03/10 05:14:46;;;;;;;;;;;;;;;19.20;29.22;101604.28;103719;1316;61403;-82
2022/03/10 05:17:44;;;;;;;;;;;;;;;19.17;29.25;101606.61;103780;1316;71485;-80
2022/03/10 05:20:30;;;;;;;;;;;;;;;19.15;29.15;101612.06;103713;1316;74591;-82
2022/03/10 05:23:23;;;;;;;;;;;;;;;19.14;29.15;101612.08;103511;1317;61256;-80
2022/03/10 05:25:49;;;;;;;;;;;;;;;19.14;29.02;101620.66;103496;1316;61264;-81
2022/03/10 05:28:37;;;;;;;;;;;;;;;19.14;28.98;101622.10;103567;1316;61438;-81
2022/03/10 05:31:03;;;;;;;;;;;;;;;19.13;28.89;101629.83;103348;1317;74467;-81
2022/03/10 05:33:33;;;;;;;;;;;;;;;19.13;28.87;101635.36;103515;1317;61359;-78
2022/03/10 05:36:09;;;;;;;;;;;;;;;19.13;28.89;101636.23;103524;1317;61416;-80
2022/03/10 05:38:42;;;;;;;;;;;;;;;19.13;28.61;101637.52;103232;1317;73777;-79
2022/03/10 05:41:30;;;;;;;;;;;;;;;19.13;28.51;101639.80;103366;1309;74644;-82
2022/03/10 05:43:56;;;;;;;;;;;;;;;19.13;28.49;101642.69;103948;1309;61208;-83
2022/03/10 05:46:22;;;;;;;;;;;;;;;19.11;28.41;101644.69;103617;1309;61355;-80
2022/03/10 05:48:48;;;;;;;;;;;;;;;19.08;28.21;101647.31;103601;1309;61302;-80
2022/03/10 05:51:13;;;;;;;;;;;;;;;19.07;28.06;101652.42;103594;1308;61291;-81
2022/03/10 05:53:39;;;;;;;;;;;;;;;19.03;27.98;101646.52;103625;1308;61333;-80
2022/03/10 05:56:07;;;;;;;;;;;;;;;18.98;28.04;101650.70;103502;1310;61301;-80
2022/03/10 05:58:33;;;;;;;;;;;;;;;18.93;27.75;101657.02;103502;1308;61207;-80
2022/03/10 06:00:58;;;;;;;;;;;;;;;18.88;27.58;101654.41;103401;1309;61375;-79
2022/03/10 06:03:25;;;;;;;;;;;;;;;18.82;27.66;101658.95;103450;1309;61833;-81
2022/03/10 06:05:50;;;;;;;;;;;;;;;18.79;27.62;101664.98;103622;1309;61380;-80
2022/03/10 06:08:16;;;;;;;;;;;;;;;18.72;27.44;101665.12;103687;1308;61328;-80
2022/03/10 06:10:42;;;;;;;;;;;;;;;18.70;27.37;101667.70;103553;1310;61320;-81
2022/03/10 06:13:08;;;;;;;;;;;;;;;18.66;27.27;101669.00;103653;1309;61300;-81
2022/03/10 06:15:37;;;;;;;;;;;;;;;18.64;27.34;101674.79;103660;1309;76166;-83
2022/03/10 06:18:02;;;;;;;;;;;;;;;18.63;27.23;101675.55;103723;1308;61208;-80
2022/03/10 06:20:30;;;;;;;;;;;;;;;18.62;27.22;101672.55;103679;1309;61405;-79
2022/03/10 06:23:20;;;;;;;;;;;;;;;18.62;27.10;101673.08;103721;1309;72833;-82
2022/03/10 06:25:48;;;;;;;;;;;;;;;18.61;27.07;101674.91;103065;1316;75737;-81
2022/03/10 06:28:13;;;;;;;;;;;;;;;18.61;26.99;101680.09;103144;1316;61515;-80
2022/03/10 06:31:01;;;;;;;;;;;;;;;18.63;26.95;101680.38;103070;1317;61225;-82
2022/03/10 06:33:27;;;;;;;;;;;;;;;18.65;26.89;101679.89;102988;1316;72846;-82
2022/03/10 06:35:53;;;;;;;;;;;;;;;18.68;26.81;101680.28;103281;1316;63033;-81
2022/03/10 06:38:18;;;;;;;;;;;;;;;18.67;26.72;101683.88;103396;1316;61412;-80
2022/03/10 06:40:44;;;;;;;;;;;;;;;18.65;26.66;101681.85;103203;1316;61318;-80
2022/03/10 06:43:09;;;;;;;;;;;;;;;18.66;26.65;101685.02;103232;1316;61428;-81
2022/03/10 06:45:38;;;;;;;;;;;;;;;18.68;26.64;101688.30;103165;1315;61412;-80
2022/03/10 06:48:04;;;;;;;;;;;;;;;18.72;26.56;101686.36;100350;1316;4027630;-81
2022/03/10 06:50:31;;;;;;;;;;;;;;;18.76;26.52;101691.68;103365;1314;61334;-82
2022/03/10 06:52:57;;;;;;;;;;;;;;;18.80;26.39;101693.10;103367;1316;61321;-82
2022/03/10 06:55:24;;;;;;;;;;;;;;;18.79;26.36;101693.29;103089;1317;61201;-79
2022/03/10 06:57:50;;;;;;;;;;;;;;;18.70;26.30;101698.20;103073;1316;61511;-79
2022/03/10 07:00:20;;;;;;;;;;;;;;;18.64;26.32;101699.02;102936;1317;61235;-79
2022/03/10 07:02:45;;;;;;;;;;;;;;;18.64;26.57;101700.44;103323;1309;61287;-79
2022/03/10 07:05:11;;;;;;;;;;;;;;;18.65;26.51;101697.91;103657;1309;61236;-81
2022/03/10 07:07:36;;;;;;;;;;;;;;;18.67;26.61;101697.45;103730;1308;62055;-81
2022/03/10 07:10:05;;;;;;;;;;;;;;;18.71;26.68;101697.80;103570;1309;61193;-79
2022/03/10 07:12:35;;;;;;;;;;;;;;;18.76;26.80;101700.26;103741;1307;61331;-80
2022/03/10 07:15:04;;;;;;;;;;;;;;;18.81;26.79;101705.35;103935;1306;73795;-80
2022/03/10 07:17:32;;;;;;;;;;;;;;;18.87;26.85;101706.86;103742;1309;61955;-80
2022/03/10 07:20:17;;;;;;;;;;;;;;;18.94;26.99;101703.53;103786;1309;61730;-81
2022/03/10 07:22:47;;;;;;;;;;;;;;;18.99;27.00;101704.02;103650;1309;61492;-81
2022/03/10 07:25:13;;;;;;;;;;;;;;;19.03;26.96;101708.95;103726;1309;73719;-80
2022/03/10 07:27:41;;;;;;;;;;;;;;;19.08;26.99;101707.84;103599;1309;75716;-83
2022/03/10 07:30:07;;;;;;;;;;;;;;;19.13;27.03;101710.14;103792;1306;61379;-80
2022/03/10 07:32:33;;;;;;;;;;;;;;;19.17;27.00;101715.61;103575;1309;61193;-80
2022/03/10 07:34:59;;;;;;;;;;;;;;;19.22;27.01;101715.20;103657;1308;62888;-81
2022/03/10 07:37:25;;;;;;;;;;;;;;;19.26;27.08;101708.55;103589;1308;61469;-81
2022/03/10 07:39:51;;;;;;;;;;;;;;;19.31;27.10;101708.16;103523;1309;61351;-80
2022/03/10 07:42:16;;;;;;;;;;;;;;;19.35;27.15;101705.28;103747;1306;61437;-81
2022/03/10 07:44:42;;;;;;;;;;;;;;;19.39;27.19;101706.15;103429;1309;61541;-80
2022/03/10 07:47:09;;;;;;;;;;;;;;;19.43;27.24;101708.29;103575;1309;61257;-81
2022/03/10 07:49:34;;;;;;;;;;;;;;;19.46;27.23;101712.44;103640;1307;61146;-80
2022/03/10 07:52:00;;;;;;;;;;;;;;;19.48;27.13;101708.38;103609;1307;61298;-79
2022/03/10 07:54:28;;;;;;;;;;;;;;;19.50;27.14;101713.27;103552;1308;61329;-81
2022/03/10 07:56:54;;;;;;;;;;;;;;;19.48;27.25;101713.05;103543;1308;61323;-81
2022/03/10 07:59:20;;;;;;;;;;;;;;;19.48;27.47;101711.10;103456;1309;61327;-82
2022/03/10 08:01:45;;;;;;;;;;;;;;;19.47;27.69;101710.60;103614;1306;61288;-80
2022/03/10 08:04:11;;;;;;;;;;;;;;;19.46;27.62;101707.59;103714;1309;63519;-80
2022/03/10 08:06:36;;;;;;;;;;;;;;;19.45;27.51;101710.70;103644;1308;61400;-81
2022/03/10 08:09:06;;;;;;;;;;;;;;;19.43;27.62;101706.98;103607;1308;61481;-79
2022/03/10 08:11:31;;;;;;;;;;;;;;;19.44;27.54;101708.77;103892;1306;75947;-79
2022/03/10 08:13:57;;;;;;;;;;;;;;;19.46;27.67;101707.44;103874;1306;60471;-79
2022/03/10 08:16:24;;;;;;;;;;;;;;;19.47;27.72;101705.40;103743;1307;61431;-80
2022/03/10 08:18:53;;;;;;;;;;;;;;;19.48;27.59;101715.17;103474;1309;74479;-79
2022/03/10 08:21:26;;;;;;;;;;;;;;;19.49;27.65;101712.80;103959;1307;61320;-80
2022/03/10 08:23:55;;;;;;;;;;;;;;;19.51;27.55;101711.27;103962;1306;61057;-81
2022/03/10 08:26:26;;;;;;;;;;;;;;;19.53;27.62;101713.52;103971;1307;61514;-79
2022/03/10 08:28:54;;;;;;;;;;;;;;;19.54;27.64;101717.73;103713;1309;74123;-80
2022/03/10 08:31:20;;;;;;;;;;;;;;;19.54;27.60;101712.35;103725;1309;74656;-82
2022/03/10 08:33:48;;;;;;;;;;;;;;;19.55;27.61;101715.17;103927;1307;61645;-80
2022/03/10 08:36:14;;;;;;;;;;;;;;;19.56;27.44;101721.01;103760;1308;61433;-80
2022/03/10 08:38:39;;;;;;;;;;;;;;;19.58;27.59;101721.99;103747;1308;61296;-80
2022/03/10 08:41:05;;;;;;;;;;;;;;;19.58;27.43;101720.55;104063;1306;61291;-80
2022/03/10 08:43:32;;;;;;;;;;;;;;;19.58;27.43;101722.35;103851;1309;61400;-80
2022/03/10 08:46:03;;;;;;;;;;;;;;;19.57;27.33;101721.88;103851;1308;61290;-81
2022/03/10 08:48:31;;;;;;;;;;;;;;;19.57;27.33;101722.41;103817;1308;73995;-81
2022/03/10 08:50:58;;;;;;;;;;;;;;;19.56;27.30;101721.00;103653;1309;75751;-80
2022/03/10 08:53:24;;;;;;;;;;;;;;;19.55;27.34;101718.04;103650;1309;61186;-81
2022/03/10 08:55:49;;;;;;;;;;;;;;;19.51;27.07;101723.95;103374;1309;61335;-81
2022/03/10 08:58:15;;;;;;;;;;;;;;;19.31;26.88;101729.92;103536;1309;61255;-80
2022/03/10 09:00:43;;;;;;;;;;;;;;;19.00;26.76;101733.73;103527;1309;63133;-79
2022/03/10 09:03:08;;;;;;;;;;;;;;;18.81;26.99;101735.85;103526;1309;61426;-79
2022/03/10 09:05:36;;;;;;;;;;;;;;;18.78;27.11;101731.91;103538;1308;61472;-80
2022/03/10 09:08:02;;;;;;;;;;;;;;;18.84;27.14;101730.56;103433;1309;61383;-80
2022/03/10 09:10:54;;;;;;;;;;;;;;;18.86;27.22;101738.30;103706;1308;62098;-82
2022/03/10 09:13:19;;;;;;;;;;;;;;;18.84;27.27;101736.96;103024;1314;61481;-80
2022/03/10 09:15:46;;;;;;;;;;;;;;;18.85;27.09;101735.33;103249;1314;61809;-81
2022/03/10 09:18:12;;;;;;;;;;;;;;;18.85;27.12;101729.94;103138;1314;61273;-81
2022/03/10 09:20:38;;;;;;;;;;;;;;;18.84;27.15;101727.48;104403;1314;59157;-80
2022/03/10 09:23:04;;;;;;;;;;;;;;;18.84;27.14;101731.41;104551;1315;59623;-79
2022/03/10 09:25:30;;;;;;;;;;;;;;;18.84;27.14;101730.70;104652;1314;59639;-79
2022/03/10 09:27:55;;;;;;;;;;;;;;;18.84;27.05;101724.30;103396;1317;63903;-80
2022/03/10 09:30:21;;;;;;;;;;;;;;;18.86;27.05;101728.46;103284;1317;61465;-81
2022/03/10 09:32:47;;;;;;;;;;;;;;;18.91;26.93;101732.77;103286;1315;74635;-81
2022/03/10 09:35:17;;;;;;;;;;;;;;;18.93;26.77;101734.77;103420;1314;61459;-79
2022/03/10 09:37:43;;;;;;;;;;;;;;;18.93;26.69;101740.84;103462;1315;61139;-79
2022/03/10 09:40:11;;;;;;;;;;;;;;;18.94;26.78;101750.27;103184;1315;61516;-78
2022/03/10 09:42:39;;;;;;;;;;;;;;;18.93;26.86;101746.55;103159;1316;74973;-80
2022/03/10 09:45:09;;;;;;;;;;;;;;;18.88;26.90;101756.06;103115;1316;61124;-80
2022/03/10 09:47:36;;;;;;;;;;;;;;;18.83;26.91;101750.91;103094;1314;61748;-79
2022/03/10 09:50:05;;;;;;;;;;;;;;;18.83;26.88;101751.61;104369;1308;73635;-79
2022/03/10 09:52:32;;;;;;;;;;;;;;;18.81;26.82;101766.34;105085;1308;75202;-80
2022/03/10 09:54:58;;;;;;;;;;;;;;;18.61;26.62;101770.65;105092;1308;60669;-81
2022/03/10 09:57:23;;;;;;;;;;;;;;;18.19;26.64;101766.44;105194;1308;59411;-80
2022/03/10 09:59:49;;;;;;;;;;;;;;;17.92;26.83;101775.42;105113;1308;59558;-79
2022/03/10 10:02:15;;;;;;;;;;;;;;;17.90;27.01;101777.46;105221;1308;60449;-80
2022/03/10 10:04:41;;;;;;;;;;;;;;;18.00;27.22;101781.50;104535;1309;61327;-81
2022/03/10 10:07:07;;;;;;;;;;;;;;;18.12;27.26;101780.64;103581;1309;61346;-80
2022/03/10 10:09:46;;;;;;;;;;;;;;;18.24;27.23;101782.98;103623;1308;61304;-82
2022/03/10 10:12:12;;;;;;;;;;;;;;;18.37;27.30;101779.38;103628;1308;75957;-80
2022/03/10 10:14:44;;;;;;;;;;;;;;;18.45;27.38;101773.85;103777;1308;61298;-80
2022/03/10 10:17:10;;;;;;;;;;;;;;;18.48;27.32;101767.30;104087;1309;61280;-82
2022/03/10 10:19:37;;;;;;;;;;;;;;;18.47;27.45;101765.04;103652;1307;61418;-81
2022/03/10 10:22:16;;;;;;;;;;;;;;;18.46;27.30;101762.05;103723;1309;73481;-80
2022/03/10 10:24:57;;;;;;;;;;;;;;;18.49;27.34;101764.08;103540;1308;61706;-80
2022/03/10 10:27:27;;;;;;;;;;;;;;;18.53;27.38;101763.19;103601;1309;60803;-79
2022/03/10 10:29:56;;;;;;;;;;;;;;;18.56;27.38;101762.45;103543;1309;71529;-80
2022/03/10 10:32:24;;;;;;;;;;;;;;;18.61;27.42;101766.91;105301;1308;74829;-80
2022/03/10 10:34:58;;;;;;;;;;;;;;;18.63;27.40;101768.60;105252;1307;59494;-79
2022/03/10 10:37:24;;;;;;;;;;;;;;;18.66;27.45;101776.48;104466;1308;61095;-78
2022/03/10 10:39:52;;;;;;;;;;;;;;;18.71;27.37;101777.52;104017;1308;61290;-80
2022/03/10 10:42:28;;;;;;;;;;;;;;;18.76;27.58;101771.90;104067;1308;75756;-79
2022/03/10 10:45:04;;;;;;;;;;;;;;;18.82;27.56;101769.71;104108;1308;61410;-81
2022/03/10 10:47:41;;;;;;;;;;;;;;;18.86;27.51;101764.53;103940;1307;61315;-81
2022/03/10 10:50:16;;;;;;;;;;;;;;;18.86;27.45;101762.72;103876;1308;73325;-81
2022/03/10 10:52:50;;;;;;;;;;;;;;;18.77;27.42;101762.08;103384;1314;74761;-81
2022/03/10 10:55:16;;;;;;;;;;;;;;;18.63;27.26;101759.69;103264;1312;61429;-79
2022/03/10 10:57:46;;;;;;;;;;;;;;;18.41;27.19;101749.60;104849;1311;59176;-81
2022/03/10 11:00:12;;;;;;;;;;;;;;;18.33;27.29;101741.93;104902;1311;73904;-82
2022/03/10 11:02:50;;;;;;;;;;;;;;;18.35;27.38;101742.41;104172;1311;75187;-81
2022/03/10 11:05:15;;;;;;;;;;;;;;;18.38;27.44;101742.42;103405;1313;61206;-82
2022/03/10 11:07:41;;;;;;;;;;;;;;;18.47;27.39;101736.34;103093;1314;61435;-80
2022/03/10 11:10:09;;;;;;;;;;;;;;;18.52;27.35;101740.90;103070;1314;62985;-79
2022/03/10 11:13:04;;;;;;;;;;;;;;;18.58;27.39;101744.23;103458;1311;74782;-81
2022/03/10 11:15:29;;;;;;;;;;;;;;;18.63;27.36;101742.05;102804;1320;61410;-82
2022/03/10 11:17:55;;;;;;;;;;;;;;;18.65;27.20;101746.05;102731;1319;61319;-80
2022/03/10 11:20:24;;;;;;;;;;;;;;;18.67;27.22;101741.33;102767;1320;61519;-80
2022/03/10 11:22:52;;;;;;;;;;;;;;;18.70;27.06;101738.12;102594;1320;74853;-83
2022/03/10 11:25:26;;;;;;;;;;;;;;;18.73;26.91;101731.59;103285;1314;61599;-80
2022/03/10 11:27:55;;;;;;;;;;;;;;;18.72;26.97;101731.80;103263;1314;61291;-82
2022/03/10 11:30:27;;;;;;;;;;;;;;;18.70;26.78;101731.38;103508;1314;73105;-80
2022/03/10 11:33:28;;;;;;;;;;;;;;;18.67;26.84;101723.45;103359;1314;74990;-82
2022/03/10 11:35:53;;;;;;;;;;;;;;;18.65;26.73;101720.17;102799;1320;61396;-80
2022/03/10 11:38:19;;;;;;;;;;;;;;;18.60;26.72;101722.90;102931;1319;61281;-79
2022/03/10 11:40:56;;;;;;;;;;;;;;;18.55;26.69;101723.84;103041;1320;72850;-82
2022/03/10 11:43:32;;;;;;;;;;;;;;;18.56;26.72;101721.66;103152;1320;75960;-80
2022/03/10 11:46:17;;;;;;;;;;;;;;;18.60;26.68;101720.97;102653;1320;62042;-82
2022/03/10 11:49:05;;;;;;;;;;;;;;;18.65;26.49;101719.11;102823;1319;62114;-80
2022/03/10 11:54:52;;;;;;;;;;;;;;;18.48;26.27;101728.48;102517;1320;75915;-80
2022/03/10 11:57:18;;;;;;;;;;;;;;;18.23;25.89;101729.73;102348;1320;62109;-81
2022/03/10 11:59:46;;;;;;;;;;;;;;;18.11;26.08;101733.67;102466;1320;62006;-81
2022/03/10 12:02:30;;;;;;;;;;;;;;;18.16;26.14;101734.17;104117;1319;72935;-80
2022/03/10 12:04:56;;;;;;;;;;;;;;;18.26;26.19;101732.84;104178;1319;76149;-81
2022/03/10 12:07:24;;;;;;;;;;;;;;;18.34;26.13;101725.72;103906;1320;61491;-80
2022/03/10 12:10:05;;;;;;;;;;;;;;;18.42;26.11;101724.80;104198;1317;62588;-80
2022/03/10 12:12:35;;;;;;;;;;;;;;;18.50;26.12;101724.63;104574;1317;72836;-80
2022/03/10 12:15:21;;;;;;;;;;;;;;;18.58;26.14;101730.67;104608;1316;75495;-80
2022/03/10 12:17:52;;;;;;;;;;;;;;;18.66;26.08;101729.92;103672;1315;61464;-81
2022/03/10 12:20:21;;;;;;;;;;;;;;;18.73;26.04;101725.34;102906;1317;62522;-84
2022/03/10 12:23:06;;;;;;;;;;;;;;;18.74;25.94;101726.20;104564;1316;73663;-80
2022/03/10 12:25:49;;;;;;;;;;;;;;;18.75;25.99;101715.77;103095;1317;76999;-81
2022/03/10 12:28:24;;;;;;;;;;;;;;;18.79;25.92;101711.16;103121;1317;62190;-81
2022/03/10 12:30:51;;;;;;;;;;;;;;;18.82;25.94;101716.16;103088;1317;62043;-81
2022/03/10 12:33:18;;;;;;;;;;;;;;;18.85;25.82;101735.14;103745;1309;73819;-80
2022/03/10 12:35:46;;;;;;;;;;;;;;;18.87;25.79;101738.96;103650;1309;75514;-81
2022/03/10 12:38:14;;;;;;;;;;;;;;;18.88;25.90;101750.52;103683;1309;62107;-80
2022/03/10 12:40:40;;;;;;;;;;;;;;;18.87;25.82;101757.17;103644;1309;62065;-80
2022/03/10 12:43:06;;;;;;;;;;;;;;;18.73;25.77;101758.34;103650;1308;62136;-80
2022/03/10 12:45:32;;;;;;;;;;;;;;;18.63;25.85;101756.81;103666;1309;60989;-80
2022/03/10 12:48:04;;;;;;;;;;;;;;;18.53;25.75;101756.75;103678;1308;62345;-79
2022/03/10 12:50:31;;;;;;;;;;;;;;;18.48;25.89;101751.79;103723;1308;62131;-81
2022/03/10 12:52:57;;;;;;;;;;;;;;;18.47;25.95;101757.41;103312;1309;70974;-81
2022/03/10 12:55:27;;;;;;;;;;;;;;;18.40;25.83;101751.42;103547;1309;62217;-80
2022/03/10 12:57:56;;;;;;;;;;;;;;;18.35;25.73;101759.86;103546;1307;62099;-80
2022/03/10 13:00:22;;;;;;;;;;;;;;;18.28;25.66;101773.92;103796;1306;63068;-80
2022/03/10 13:02:48;;;;;;;;;;;;;;;18.30;25.69;101772.05;103624;1308;62048;-81
2022/03/10 13:05:19;;;;;;;;;;;;;;;18.35;25.72;101769.86;103612;1308;62215;-79
2022/03/10 13:07:44;;;;;;;;;;;;;;;18.39;25.64;101773.05;103608;1309;62064;-79
2022/03/10 13:10:11;;;;;;;;;;;;;;;18.44;25.57;101778.38;103779;1309;62076;-79
2022/03/10 13:12:40;;;;;;;;;;;;;;;18.50;25.58;101780.42;103970;1309;62224;-79
2022/03/10 13:15:07;;;;;;;;;;;;;;;18.55;25.53;101777.84;103871;1309;76694;-79
2022/03/10 13:17:46;;;;;;;;;;;;;;;18.62;25.54;101772.02;103837;1309;62179;-80
2022/03/10 13:20:21;;;;;;;;;;;;;;;18.68;25.61;101766.75;103813;1308;62053;-79
2022/03/10 13:22:50;;;;;;;;;;;;;;;18.74;25.64;101767.91;103746;1309;72355;-80
2022/03/10 13:25:18;;;;;;;;;;;;;;;18.79;25.70;101766.62;103885;1307;76581;-79
2022/03/10 13:27:49;;;;;;;;;;;;;;;18.83;25.68;101761.44;103964;1308;61986;-80
2022/03/10 13:30:27;;;;;;;;;;;;;;;18.87;25.64;101759.11;104059;1309;60796;-79